sensor_id;sensor_type;location;lat;lon;timestamp;temperature;humidity
3548;DHT22;1788;49.400;11.092;2023-09-19T00:02:26;19.60;73.00
3548;DHT22;1788;49.400;11.092;2023-09-19T00:04:53;19.60;73.00
3548;DHT22;1788;49.400;11.092;2023-09-19T00:07:19;19.60;73.00
3548;DHT22;1788;49.400;11.092;2023-09-19T00:09:46;19.50;72.80
3548;DHT22;1788;49.400;11.092;2023-09-19T00:12:13;19.50;72.70
3548;DHT22;1788;49.400;11.092;2023-09-19T00:14:41;19.50;72.70
3548;DHT22;1788;49.400;11.092;2023-09-19T00:17:08;19.50;72.70
3548;DHT22;1788;49.400;11.092;2023-09-19T00:19:35;19.50;72.70
3548;DHT22;1788;49.400;11.092;2023-09-19T00:22:01;19.50;72.70
3548;DHT22;1788;49.400;11.092;2023-09-19T00:24:29;19.40;72.60
3548;DHT22;1788;49.400;11.092;2023-09-19T00:26:55;19.40;72.50
3548;DHT22;1788;49.400;11.092;2023-09-19T00:29:22;19.40;72.50
3548;DHT22;1788;49.400;11.092;2023-09-19T00:31:49;19.40;72.50
3548;DHT22;1788;49.400;11.092;2023-09-19T00:34:15;19.40;72.50
3548;DHT22;1788;49.400;11.092;2023-09-19T00:36:42;19.40;72.50
3548;DHT22;1788;49.400;11.092;2023-09-19T00:39:08;19.40;73.30
3548;DHT22;1788;49.400;11.092;2023-09-19T00:41:35;19.30;72.50
3548;DHT22;1788;49.400;11.092;2023-09-19T00:44:02;19.30;72.50
3548;DHT22;1788;49.400;11.092;2023-09-19T00:46:30;19.40;72.60
3548;DHT22;1788;49.400;11.092;2023-09-19T00:48:57;19.30;72.40
3548;DHT22;1788;49.400;11.092;2023-09-19T00:51:24;19.30;72.40
3548;DHT22;1788;49.400;11.092;2023-09-19T00:53:51;19.30;72.40
3548;DHT22;1788;49.400;11.092;2023-09-19T00:56:17;19.30;72.30
3548;DHT22;1788;49.400;11.092;2023-09-19T01:01:10;19.30;72.20
3548;DHT22;1788;49.400;11.092;2023-09-19T01:03:37;19.30;72.10
3548;DHT22;1788;49.400;11.092;2023-09-19T01:06:04;19.30;72.10
3548;DHT22;1788;49.400;11.092;2023-09-19T01:08:30;19.30;72.00
3548;DHT22;1788;49.400;11.092;2023-09-19T01:20:45;19.20;71.70
3548;DHT22;1788;49.400;11.092;2023-09-19T01:23:12;19.20;71.70
3548;DHT22;1788;49.400;11.092;2023-09-19T01:25:42;19.20;71.60
3548;DHT22;1788;49.400;11.092;2023-09-19T01:30:32;19.20;71.50
3548;DHT22;1788;49.400;11.092;2023-09-19T01:32:57;19.20;71.40
3548;DHT22;1788;49.400;11.092;2023-09-19T01:35:24;19.20;71.50
3548;DHT22;1788;49.400;11.092;2023-09-19T01:37:51;19.20;71.50
3548;DHT22;1788;49.400;11.092;2023-09-19T01:40:18;19.20;71.50
3548;DHT22;1788;49.400;11.092;2023-09-19T01:52:34;19.20;71.40
3548;DHT22;1788;49.400;11.092;2023-09-19T01:55:02;19.30;71.50
3548;DHT22;1788;49.400;11.092;2023-09-19T01:57:27;19.30;71.50
3548;DHT22;1788;49.400;11.092;2023-09-19T01:59:54;19.30;71.50
3548;DHT22;1788;49.400;11.092;2023-09-19T02:02:19;19.20;71.30
3548;DHT22;1788;49.400;11.092;2023-09-19T02:04:46;19.20;71.40
3548;DHT22;1788;49.400;11.092;2023-09-19T02:07:13;19.10;71.20
3548;DHT22;1788;49.400;11.092;2023-09-19T02:09:39;19.20;71.40
3548;DHT22;1788;49.400;11.092;2023-09-19T02:12:07;19.20;71.40
3548;DHT22;1788;49.400;11.092;2023-09-19T02:14:33;19.20;71.40
3548;DHT22;1788;49.400;11.092;2023-09-19T02:17:00;19.20;71.40
3548;DHT22;1788;49.400;11.092;2023-09-19T02:19:27;19.20;71.40
3548;DHT22;1788;49.400;11.092;2023-09-19T02:21:53;19.30;71.40
3548;DHT22;1788;49.400;11.092;2023-09-19T02:24:20;19.30;71.40
3548;DHT22;1788;49.400;11.092;2023-09-19T02:26:47;19.30;71.40
3548;DHT22;1788;49.400;11.092;2023-09-19T02:29:14;19.30;71.30
3548;DHT22;1788;49.400;11.092;2023-09-19T02:31:42;19.30;71.20
3548;DHT22;1788;49.400;11.092;2023-09-19T02:34:08;19.30;71.20
3548;DHT22;1788;49.400;11.092;2023-09-19T02:36:36;19.30;71.10
3548;DHT22;1788;49.400;11.092;2023-09-19T02:39:02;19.30;71.10
3548;DHT22;1788;49.400;11.092;2023-09-19T02:41:29;19.30;71.20
3548;DHT22;1788;49.400;11.092;2023-09-19T02:43:56;19.40;71.30
3548;DHT22;1788;49.400;11.092;2023-09-19T02:46:23;19.30;71.10
3548;DHT22;1788;49.400;11.092;2023-09-19T02:48:49;19.30;71.10
3548;DHT22;1788;49.400;11.092;2023-09-19T02:51:16;19.40;71.20
3548;DHT22;1788;49.400;11.092;2023-09-19T02:53:42;19.40;71.20
3548;DHT22;1788;49.400;11.092;2023-09-19T02:56:10;19.40;72.00
3548;DHT22;1788;49.400;11.092;2023-09-19T02:58:36;19.30;71.10
3548;DHT22;1788;49.400;11.092;2023-09-19T03:03:32;19.30;71.00
3548;DHT22;1788;49.400;11.092;2023-09-19T03:05:58;19.30;70.90
3548;DHT22;1788;49.400;11.092;2023-09-19T03:08:25;19.30;70.90
3548;DHT22;1788;49.400;11.092;2023-09-19T03:10:52;19.30;70.90
3548;DHT22;1788;49.400;11.092;2023-09-19T03:13:19;19.30;70.90
3548;DHT22;1788;49.400;11.092;2023-09-19T03:15:46;19.20;70.90
3548;DHT22;1788;49.400;11.092;2023-09-19T03:18:13;19.20;70.90
3548;DHT22;1788;49.400;11.092;2023-09-19T03:20:39;19.20;70.90
3548;DHT22;1788;49.400;11.092;2023-09-19T03:23:06;19.20;70.90
3548;DHT22;1788;49.400;11.092;2023-09-19T03:28:00;19.20;71.00
3548;DHT22;1788;49.400;11.092;2023-09-19T03:30:27;19.10;70.90
3548;DHT22;1788;49.400;11.092;2023-09-19T03:32:54;19.20;70.80
3548;DHT22;1788;49.400;11.092;2023-09-19T03:35:21;19.10;70.60
3548;DHT22;1788;49.400;11.092;2023-09-19T03:37:47;19.10;70.60
3548;DHT22;1788;49.400;11.092;2023-09-19T03:40:14;19.10;70.70
3548;DHT22;1788;49.400;11.092;2023-09-19T03:42:41;19.00;70.60
3548;DHT22;1788;49.400;11.092;2023-09-19T03:45:08;18.90;71.60
3548;DHT22;1788;49.400;11.092;2023-09-19T03:47:34;18.90;70.80
3548;DHT22;1788;49.400;11.092;2023-09-19T03:50:02;18.80;71.40
3548;DHT22;1788;49.400;11.092;2023-09-19T03:52:28;18.80;71.00
3548;DHT22;1788;49.400;11.092;2023-09-19T03:54:56;18.60;71.80
3548;DHT22;1788;49.400;11.092;2023-09-19T03:57:22;18.60;71.00
3548;DHT22;1788;49.400;11.092;2023-09-19T03:59:49;18.60;71.10
3548;DHT22;1788;49.400;11.092;2023-09-19T04:02:16;18.50;71.10
3548;DHT22;1788;49.400;11.092;2023-09-19T04:04:42;18.50;71.30
3548;DHT22;1788;49.400;11.092;2023-09-19T04:07:10;18.40;71.50
3548;DHT22;1788;49.400;11.092;2023-09-19T04:09:36;18.40;71.40
3548;DHT22;1788;49.400;11.092;2023-09-19T04:12:04;18.30;71.60
3548;DHT22;1788;49.400;11.092;2023-09-19T04:14:30;18.30;71.60
3548;DHT22;1788;49.400;11.092;2023-09-19T04:16:57;18.30;71.70
3548;DHT22;1788;49.400;11.092;2023-09-19T04:19:23;18.20;71.70
3548;DHT22;1788;49.400;11.092;2023-09-19T04:21:50;18.20;71.80
3548;DHT22;1788;49.400;11.092;2023-09-19T04:24:17;18.20;72.00
3548;DHT22;1788;49.400;11.092;2023-09-19T04:26:45;18.20;72.00
3548;DHT22;1788;49.400;11.092;2023-09-19T04:29:12;18.20;72.00
3548;DHT22;1788;49.400;11.092;2023-09-19T04:31:39;18.20;72.10
3548;DHT22;1788;49.400;11.092;2023-09-19T04:34:06;18.20;72.10
3548;DHT22;1788;49.400;11.092;2023-09-19T04:36:32;18.20;72.20
3548;DHT22;1788;49.400;11.092;2023-09-19T04:38:59;18.20;72.20
3548;DHT22;1788;49.400;11.092;2023-09-19T04:41:26;18.20;72.20
3548;DHT22;1788;49.400;11.092;2023-09-19T04:43:53;18.20;72.20
3548;DHT22;1788;49.400;11.092;2023-09-19T04:46:20;18.20;72.20
3548;DHT22;1788;49.400;11.092;2023-09-19T04:48:47;18.30;73.00
3548;DHT22;1788;49.400;11.092;2023-09-19T04:51:14;18.20;72.10
3548;DHT22;1788;49.400;11.092;2023-09-19T04:53:41;18.40;72.20
3548;DHT22;1788;49.400;11.092;2023-09-19T04:56:08;18.40;72.10
3548;DHT22;1788;49.400;11.092;2023-09-19T04:58:35;18.50;72.20
3548;DHT22;1788;49.400;11.092;2023-09-19T05:01:02;18.50;72.10
3548;DHT22;1788;49.400;11.092;2023-09-19T05:03:29;18.70;72.70
3548;DHT22;1788;49.400;11.092;2023-09-19T05:05:57;18.70;72.70
3548;DHT22;1788;49.400;11.092;2023-09-19T05:08:24;18.70;71.80
3548;DHT22;1788;49.400;11.092;2023-09-19T05:10:51;18.80;71.70
3548;DHT22;1788;49.400;11.092;2023-09-19T05:13:18;18.80;71.60
3548;DHT22;1788;49.400;11.092;2023-09-19T05:15:45;18.80;71.60
3548;DHT22;1788;49.400;11.092;2023-09-19T05:18:12;18.80;71.60
3548;DHT22;1788;49.400;11.092;2023-09-19T05:20:39;18.80;71.50
3548;DHT22;1788;49.400;11.092;2023-09-19T05:23:05;18.80;71.50
3548;DHT22;1788;49.400;11.092;2023-09-19T05:25:32;18.80;71.60
3548;DHT22;1788;49.400;11.092;2023-09-19T05:28:00;18.80;71.60
3548;DHT22;1788;49.400;11.092;2023-09-19T05:30:27;18.80;71.60
3548;DHT22;1788;49.400;11.092;2023-09-19T05:32:54;18.80;71.50
3548;DHT22;1788;49.400;11.092;2023-09-19T05:35:21;18.80;71.60
3548;DHT22;1788;49.400;11.092;2023-09-19T05:37:50;18.80;71.60
3548;DHT22;1788;49.400;11.092;2023-09-19T05:40:14;18.80;71.60
3548;DHT22;1788;49.400;11.092;2023-09-19T05:42:41;18.80;70.90
3548;DHT22;1788;49.400;11.092;2023-09-19T05:45:08;18.80;71.50
3548;DHT22;1788;49.400;11.092;2023-09-19T05:47:35;18.70;71.50
3548;DHT22;1788;49.400;11.092;2023-09-19T05:50:02;18.70;71.60
3548;DHT22;1788;49.400;11.092;2023-09-19T05:52:28;18.60;71.60
3548;DHT22;1788;49.400;11.092;2023-09-19T05:54:56;18.60;72.20
3548;DHT22;1788;49.400;11.092;2023-09-19T05:57:22;18.50;71.60
3548;DHT22;1788;49.400;11.092;2023-09-19T05:59:49;18.50;71.80
3548;DHT22;1788;49.400;11.092;2023-09-19T06:02:16;18.50;71.90
3548;DHT22;1788;49.400;11.092;2023-09-19T06:04:42;18.50;72.00
3548;DHT22;1788;49.400;11.092;2023-09-19T06:07:09;18.40;72.10
3548;DHT22;1788;49.400;11.092;2023-09-19T06:09:38;18.40;72.20
3548;DHT22;1788;49.400;11.092;2023-09-19T06:12:04;18.30;72.00
3548;DHT22;1788;49.400;11.092;2023-09-19T06:14:32;18.40;72.30
3548;DHT22;1788;49.400;11.092;2023-09-19T06:16:59;18.40;72.50
3548;DHT22;1788;49.400;11.092;2023-09-19T06:19:26;18.30;72.40
3548;DHT22;1788;49.400;11.092;2023-09-19T06:21:53;18.40;72.50
3548;DHT22;1788;49.400;11.092;2023-09-19T06:24:20;18.40;72.50
3548;DHT22;1788;49.400;11.092;2023-09-19T06:26:47;18.40;72.40
3548;DHT22;1788;49.400;11.092;2023-09-19T06:29:13;18.50;72.50
3548;DHT22;1788;49.400;11.092;2023-09-19T06:31:40;18.50;72.40
3548;DHT22;1788;49.400;11.092;2023-09-19T06:34:07;18.50;72.50
3548;DHT22;1788;49.400;11.092;2023-09-19T06:36:34;18.50;72.50
3548;DHT22;1788;49.400;11.092;2023-09-19T06:39:01;18.50;72.50
3548;DHT22;1788;49.400;11.092;2023-09-19T06:41:29;18.60;72.60
3548;DHT22;1788;49.400;11.092;2023-09-19T06:43:55;18.60;72.60
3548;DHT22;1788;49.400;11.092;2023-09-19T06:46:23;18.70;72.70
3548;DHT22;1788;49.400;11.092;2023-09-19T06:48:49;18.70;72.70
3548;DHT22;1788;49.400;11.092;2023-09-19T06:51:17;18.80;72.70
3548;DHT22;1788;49.400;11.092;2023-09-19T06:53:43;18.80;72.70
3548;DHT22;1788;49.400;11.092;2023-09-19T06:56:10;18.80;72.60
3548;DHT22;1788;49.400;11.092;2023-09-19T06:58:37;18.90;72.50
3548;DHT22;1788;49.400;11.092;2023-09-19T07:01:03;19.00;72.30
3548;DHT22;1788;49.400;11.092;2023-09-19T07:03:31;19.10;71.90
3548;DHT22;1788;49.400;11.092;2023-09-19T07:05:57;19.10;71.90
3548;DHT22;1788;49.400;11.092;2023-09-19T07:08:24;19.20;71.70
3548;DHT22;1788;49.400;11.092;2023-09-19T07:10:50;19.30;71.50
3548;DHT22;1788;49.400;11.092;2023-09-19T07:13:17;19.30;71.00
3548;DHT22;1788;49.400;11.092;2023-09-19T07:15:44;19.30;70.50
3548;DHT22;1788;49.400;11.092;2023-09-19T07:18:10;19.30;70.30
3548;DHT22;1788;49.400;11.092;2023-09-19T07:20:37;19.40;70.00
3548;DHT22;1788;49.400;11.092;2023-09-19T07:23:04;19.50;69.60
3548;DHT22;1788;49.400;11.092;2023-09-19T07:25:30;19.60;69.40
3548;DHT22;1788;49.400;11.092;2023-09-19T07:27:57;19.60;69.00
3548;DHT22;1788;49.400;11.092;2023-09-19T07:30:23;19.70;68.70
3548;DHT22;1788;49.400;11.092;2023-09-19T07:32:50;19.80;68.40
3548;DHT22;1788;49.400;11.092;2023-09-19T07:35:18;20.00;67.60
3548;DHT22;1788;49.400;11.092;2023-09-19T07:37:44;19.90;67.40
3548;DHT22;1788;49.400;11.092;2023-09-19T07:40:11;20.00;66.90
3548;DHT22;1788;49.400;11.092;2023-09-19T07:42:37;20.10;66.50
3548;DHT22;1788;49.400;11.092;2023-09-19T07:45:04;20.10;66.20
3548;DHT22;1788;49.400;11.092;2023-09-19T07:47:31;20.10;65.70
3548;DHT22;1788;49.400;11.092;2023-09-19T07:49:58;20.10;65.60
3548;DHT22;1788;49.400;11.092;2023-09-19T07:52:25;20.10;65.30
3548;DHT22;1788;49.400;11.092;2023-09-19T07:54:52;20.10;66.00
3548;DHT22;1788;49.400;11.092;2023-09-19T07:57:20;20.10;64.70
3548;DHT22;1788;49.400;11.092;2023-09-19T07:59:47;20.10;64.70
3548;DHT22;1788;49.400;11.092;2023-09-19T08:02:14;20.00;64.30
3548;DHT22;1788;49.400;11.092;2023-09-19T08:04:42;20.00;64.30
3548;DHT22;1788;49.400;11.092;2023-09-19T08:07:08;20.00;65.30
3548;DHT22;1788;49.400;11.092;2023-09-19T08:09:35;20.00;64.20
3548;DHT22;1788;49.400;11.092;2023-09-19T08:12:01;20.10;64.00
3548;DHT22;1788;49.400;11.092;2023-09-19T08:14:28;20.20;63.90
3548;DHT22;1788;49.400;11.092;2023-09-19T08:19:22;20.40;62.80
3548;DHT22;1788;49.400;11.092;2023-09-19T08:21:49;20.50;62.90
3548;DHT22;1788;49.400;11.092;2023-09-19T08:24:15;20.60;62.60
3548;DHT22;1788;49.400;11.092;2023-09-19T08:26:42;20.70;62.50
3548;DHT22;1788;49.400;11.092;2023-09-19T08:29:08;20.80;62.40
3548;DHT22;1788;49.400;11.092;2023-09-19T08:31:35;20.80;61.80
3548;DHT22;1788;49.400;11.092;2023-09-19T08:34:02;20.80;61.40
3548;DHT22;1788;49.400;11.092;2023-09-19T08:36:29;20.90;61.20
3548;DHT22;1788;49.400;11.092;2023-09-19T08:38:57;20.90;61.00
3548;DHT22;1788;49.400;11.092;2023-09-19T08:41:23;20.90;61.00
3548;DHT22;1788;49.400;11.092;2023-09-19T08:43:50;21.00;60.90
3548;DHT22;1788;49.400;11.092;2023-09-19T08:46:16;21.00;60.70
3548;DHT22;1788;49.400;11.092;2023-09-19T08:51:12;21.00;60.10
3548;DHT22;1788;49.400;11.092;2023-09-19T08:56:05;20.90;59.80
3548;DHT22;1788;49.400;11.092;2023-09-19T08:58:32;20.90;59.80
3548;DHT22;1788;49.400;11.092;2023-09-19T09:00:58;21.00;59.70
3548;DHT22;1788;49.400;11.092;2023-09-19T09:03:24;21.00;59.60
3548;DHT22;1788;49.400;11.092;2023-09-19T09:05:51;21.00;59.30
3548;DHT22;1788;49.400;11.092;2023-09-19T09:08:19;21.00;59.20
3548;DHT22;1788;49.400;11.092;2023-09-19T09:10:44;21.00;58.90
3548;DHT22;1788;49.400;11.092;2023-09-19T09:13:11;21.10;58.70
3548;DHT22;1788;49.400;11.092;2023-09-19T09:15:38;21.10;58.60
3548;DHT22;1788;49.400;11.092;2023-09-19T09:18:05;21.10;58.10
3548;DHT22;1788;49.400;11.092;2023-09-19T09:20:33;21.10;58.10
3548;DHT22;1788;49.400;11.092;2023-09-19T09:22:59;21.10;58.00
3548;DHT22;1788;49.400;11.092;2023-09-19T09:32:46;20.90;57.50
3548;DHT22;1788;49.400;11.092;2023-09-19T09:35:13;20.90;57.40
3548;DHT22;1788;49.400;11.092;2023-09-19T09:37:39;20.80;57.30
3548;DHT22;1788;49.400;11.092;2023-09-19T09:40:06;20.90;57.40
3548;DHT22;1788;49.400;11.092;2023-09-19T09:42:33;21.00;57.40
3548;DHT22;1788;49.400;11.092;2023-09-19T09:49:53;21.00;56.80
3548;DHT22;1788;49.400;11.092;2023-09-19T09:52:20;21.10;56.90
3548;DHT22;1788;49.400;11.092;2023-09-19T09:57:14;21.20;56.60
3548;DHT22;1788;49.400;11.092;2023-09-19T10:02:08;21.20;56.30
3548;DHT22;1788;49.400;11.092;2023-09-19T10:04:34;21.20;56.30
3548;DHT22;1788;49.400;11.092;2023-09-19T10:07:01;21.30;56.40
3548;DHT22;1788;49.400;11.092;2023-09-19T10:09:28;21.40;56.40
3548;DHT22;1788;49.400;11.092;2023-09-19T10:14:23;21.50;55.90
3548;DHT22;1788;49.400;11.092;2023-09-19T10:16:48;21.40;55.80
3548;DHT22;1788;49.400;11.092;2023-09-19T10:21:43;21.60;55.90
3548;DHT22;1788;49.400;11.092;2023-09-19T10:24:10;21.90;55.90
3548;DHT22;1788;49.400;11.092;2023-09-19T10:26:37;21.90;55.90
3548;DHT22;1788;49.400;11.092;2023-09-19T10:29:03;22.00;55.90
3548;DHT22;1788;49.400;11.092;2023-09-19T10:31:31;22.10;55.90
3548;DHT22;1788;49.400;11.092;2023-09-19T10:33:57;22.10;55.70
3548;DHT22;1788;49.400;11.092;2023-09-19T10:36:24;22.10;55.60
3548;DHT22;1788;49.400;11.092;2023-09-19T10:38:51;22.10;55.50
3548;DHT22;1788;49.400;11.092;2023-09-19T10:41:18;22.00;55.40
3548;DHT22;1788;49.400;11.092;2023-09-19T10:43:44;22.00;55.40
3548;DHT22;1788;49.400;11.092;2023-09-19T10:46:12;22.10;55.20
3548;DHT22;1788;49.400;11.092;2023-09-19T10:48:39;22.10;55.20
3548;DHT22;1788;49.400;11.092;2023-09-19T10:53:40;22.20;54.80
3548;DHT22;1788;49.400;11.092;2023-09-19T10:55:59;22.20;54.40
3548;DHT22;1788;49.400;11.092;2023-09-19T11:00:53;22.40;53.80
3548;DHT22;1788;49.400;11.092;2023-09-19T11:03:21;22.60;53.50
3548;DHT22;1788;49.400;11.092;2023-09-19T11:08:14;22.80;52.70
3548;DHT22;1788;49.400;11.092;2023-09-19T11:18:01;22.60;51.70
3548;DHT22;1788;49.400;11.092;2023-09-19T11:20:27;22.60;51.70
3548;DHT22;1788;49.400;11.092;2023-09-19T11:35:07;22.50;51.30
3548;DHT22;1788;49.400;11.092;2023-09-19T11:44:55;22.80;50.30
3548;DHT22;1788;49.400;11.092;2023-09-19T11:47:22;22.80;50.30
3548;DHT22;1788;49.400;11.092;2023-09-19T11:49:48;22.90;50.20
3548;DHT22;1788;49.400;11.092;2023-09-19T11:52:21;22.90;50.10
3548;DHT22;1788;49.400;11.092;2023-09-19T11:54:42;22.90;50.00
3548;DHT22;1788;49.400;11.092;2023-09-19T11:57:09;23.00;49.80
3548;DHT22;1788;49.400;11.092;2023-09-19T11:59:38;23.00;49.70
3548;DHT22;1788;49.400;11.092;2023-09-19T12:06:57;23.40;49.10
3548;DHT22;1788;49.400;11.092;2023-09-19T12:09:24;23.40;48.90
3548;DHT22;1788;49.400;11.092;2023-09-19T12:11:51;23.30;48.80
3548;DHT22;1788;49.400;11.092;2023-09-19T12:16:50;23.40;48.70
3548;DHT22;1788;49.400;11.092;2023-09-19T12:21:37;23.40;48.50
3548;DHT22;1788;49.400;11.092;2023-09-19T12:28:59;23.50;48.30
3548;DHT22;1788;49.400;11.092;2023-09-19T12:31:25;23.50;48.30
3548;DHT22;1788;49.400;11.092;2023-09-19T12:38:47;23.50;48.30
3548;DHT22;1788;49.400;11.092;2023-09-19T12:41:12;23.60;48.30
3548;DHT22;1788;49.400;11.092;2023-09-19T12:43:39;23.60;48.30
3548;DHT22;1788;49.400;11.092;2023-09-19T12:46:06;23.60;48.30
3548;DHT22;1788;49.400;11.092;2023-09-19T12:48:32;23.60;48.40
3548;DHT22;1788;49.400;11.092;2023-09-19T12:51:03;23.60;48.30
3548;DHT22;1788;49.400;11.092;2023-09-19T12:53:26;23.70;48.20
3548;DHT22;1788;49.400;11.092;2023-09-19T12:55:59;23.70;48.10
3548;DHT22;1788;49.400;11.092;2023-09-19T12:58:19;23.80;48.20
3548;DHT22;1788;49.400;11.092;2023-09-19T13:00:45;24.00;47.80
3548;DHT22;1788;49.400;11.092;2023-09-19T13:08:17;24.60;47.50
3548;DHT22;1788;49.400;11.092;2023-09-19T13:10:32;24.90;47.20
3548;DHT22;1788;49.400;11.092;2023-09-19T13:12:59;25.40;46.20
3548;DHT22;1788;49.400;11.092;2023-09-19T13:15:26;25.40;46.20
3548;DHT22;1788;49.400;11.092;2023-09-19T13:17:52;25.60;46.20
3548;DHT22;1788;49.400;11.092;2023-09-19T13:22:46;25.90;45.40
3548;DHT22;1788;49.400;11.092;2023-09-19T13:25:14;26.20;45.00
3548;DHT22;1788;49.400;11.092;2023-09-19T13:27:40;26.20;44.90
3548;DHT22;1788;49.400;11.092;2023-09-19T13:30:06;26.40;44.90
3548;DHT22;1788;49.400;11.092;2023-09-19T13:32:33;26.80;44.10
3548;DHT22;1788;49.400;11.092;2023-09-19T13:34:59;27.00;43.60
3548;DHT22;1788;49.400;11.092;2023-09-19T13:37:26;27.10;43.50
3548;DHT22;1788;49.400;11.092;2023-09-19T13:39:53;26.90;43.60
3548;DHT22;1788;49.400;11.092;2023-09-19T13:42:19;26.60;43.90
3548;DHT22;1788;49.400;11.092;2023-09-19T13:44:46;26.20;44.30
3548;DHT22;1788;49.400;11.092;2023-09-19T13:47:14;25.80;44.70
3548;DHT22;1788;49.400;11.092;2023-09-19T13:49:41;25.70;44.60
3548;DHT22;1788;49.400;11.092;2023-09-19T13:52:08;25.80;44.20
3548;DHT22;1788;49.400;11.092;2023-09-19T13:54:35;25.80;44.80
3548;DHT22;1788;49.400;11.092;2023-09-19T13:57:01;25.90;44.20
3548;DHT22;1788;49.400;11.092;2023-09-19T13:59:28;26.20;43.80
3548;DHT22;1788;49.400;11.092;2023-09-19T14:01:55;26.80;43.40
3548;DHT22;1788;49.400;11.092;2023-09-19T14:04:22;27.20;42.40
3548;DHT22;1788;49.400;11.092;2023-09-19T14:06:49;27.20;42.40
3548;DHT22;1788;49.400;11.092;2023-09-19T14:09:15;27.30;42.20
3548;DHT22;1788;49.400;11.092;2023-09-19T14:11:42;27.60;41.70
3548;DHT22;1788;49.400;11.092;2023-09-19T14:14:08;27.70;41.20
3548;DHT22;1788;49.400;11.092;2023-09-19T14:16:35;27.80;40.80
3548;DHT22;1788;49.400;11.092;2023-09-19T14:19:02;27.50;40.80
3548;DHT22;1788;49.400;11.092;2023-09-19T14:21:28;27.20;41.20
3548;DHT22;1788;49.400;11.092;2023-09-19T14:23:55;27.00;41.60
3548;DHT22;1788;49.400;11.092;2023-09-19T14:26:22;26.90;41.60
3548;DHT22;1788;49.400;11.092;2023-09-19T14:28:49;26.90;41.60
3548;DHT22;1788;49.400;11.092;2023-09-19T14:31:16;27.40;41.10
3548;DHT22;1788;49.400;11.092;2023-09-19T14:33:43;27.30;41.10
3548;DHT22;1788;49.400;11.092;2023-09-19T14:36:10;27.50;41.40
3548;DHT22;1788;49.400;11.092;2023-09-19T14:38:37;27.50;40.80
3548;DHT22;1788;49.400;11.092;2023-09-19T14:41:04;27.70;40.60
3548;DHT22;1788;49.400;11.092;2023-09-19T14:43:30;28.00;40.20
3548;DHT22;1788;49.400;11.092;2023-09-19T14:45:57;27.70;40.20
3548;DHT22;1788;49.400;11.092;2023-09-19T14:48:24;27.60;40.00
3548;DHT22;1788;49.400;11.092;2023-09-19T14:50:51;27.60;40.60
3548;DHT22;1788;49.400;11.092;2023-09-19T14:53:18;27.80;40.00
3548;DHT22;1788;49.400;11.092;2023-09-19T14:55:45;27.80;40.00
3548;DHT22;1788;49.400;11.092;2023-09-19T14:58:11;27.70;39.70
3548;DHT22;1788;49.400;11.092;2023-09-19T15:00:39;27.70;39.80
3548;DHT22;1788;49.400;11.092;2023-09-19T15:03:05;27.60;39.80
3548;DHT22;1788;49.400;11.092;2023-09-19T15:05:32;27.50;39.90
3548;DHT22;1788;49.400;11.092;2023-09-19T15:07:58;27.30;39.90
3548;DHT22;1788;49.400;11.092;2023-09-19T15:10:25;26.90;40.10
3548;DHT22;1788;49.400;11.092;2023-09-19T15:12:52;26.30;40.70
3548;DHT22;1788;49.400;11.092;2023-09-19T15:15:19;26.20;40.60
3548;DHT22;1788;49.400;11.092;2023-09-19T15:17:46;26.00;41.60
3548;DHT22;1788;49.400;11.092;2023-09-19T15:20:13;26.00;41.00
3548;DHT22;1788;49.400;11.092;2023-09-19T15:22:40;26.00;41.20
3548;DHT22;1788;49.400;11.092;2023-09-19T15:25:06;26.10;41.20
3548;DHT22;1788;49.400;11.092;2023-09-19T15:27:33;26.00;41.30
3548;DHT22;1788;49.400;11.092;2023-09-19T15:30:00;25.70;41.80
3548;DHT22;1788;49.400;11.092;2023-09-19T15:32:27;25.70;41.80
3548;DHT22;1788;49.400;11.092;2023-09-19T15:34:54;25.50;42.10
3548;DHT22;1788;49.400;11.092;2023-09-19T15:37:21;25.40;42.00
3548;DHT22;1788;49.400;11.092;2023-09-19T15:39:48;25.30;42.40
3548;DHT22;1788;49.400;11.092;2023-09-19T15:42:15;25.30;42.40
3548;DHT22;1788;49.400;11.092;2023-09-19T15:44:42;25.30;42.60
3548;DHT22;1788;49.400;11.092;2023-09-19T15:47:08;25.20;42.60
3548;DHT22;1788;49.400;11.092;2023-09-19T15:49:35;25.20;42.70
3548;DHT22;1788;49.400;11.092;2023-09-19T15:52:02;25.00;42.90
3548;DHT22;1788;49.400;11.092;2023-09-19T15:54:29;24.90;42.80
3548;DHT22;1788;49.400;11.092;2023-09-19T15:56:56;24.70;43.00
3548;DHT22;1788;49.400;11.092;2023-09-19T15:59:23;24.70;43.00
3548;DHT22;1788;49.400;11.092;2023-09-19T16:01:49;24.50;43.10
3548;DHT22;1788;49.400;11.092;2023-09-19T16:04:16;24.40;43.20
3548;DHT22;1788;49.400;11.092;2023-09-19T16:06:42;24.30;43.30
3548;DHT22;1788;49.400;11.092;2023-09-19T16:09:10;23.90;43.50
3548;DHT22;1788;49.400;11.092;2023-09-19T16:11:37;23.90;43.50
3548;DHT22;1788;49.400;11.092;2023-09-19T16:14:04;23.60;43.70
3548;DHT22;1788;49.400;11.092;2023-09-19T16:16:30;23.60;43.70
3548;DHT22;1788;49.400;11.092;2023-09-19T16:18:59;23.40;44.00
3548;DHT22;1788;49.400;11.092;2023-09-19T16:21:24;23.30;43.90
3548;DHT22;1788;49.400;11.092;2023-09-19T16:23:51;23.30;44.10
3548;DHT22;1788;49.400;11.092;2023-09-19T16:26:18;23.20;44.20
3548;DHT22;1788;49.400;11.092;2023-09-19T16:28:44;23.10;44.30
3548;DHT22;1788;49.400;11.092;2023-09-19T16:31:12;22.90;44.60
3548;DHT22;1788;49.400;11.092;2023-09-19T16:33:39;22.90;44.60
3548;DHT22;1788;49.400;11.092;2023-09-19T16:38:32;22.80;44.80
3548;DHT22;1788;49.400;11.092;2023-09-19T16:41:00;22.70;45.50
3548;DHT22;1788;49.400;11.092;2023-09-19T16:43:26;22.70;45.00
3548;DHT22;1788;49.400;11.092;2023-09-19T16:45:54;22.70;45.10
3548;DHT22;1788;49.400;11.092;2023-09-19T16:48:20;22.60;45.20
3548;DHT22;1788;49.400;11.092;2023-09-19T16:50:46;22.50;45.30
3548;DHT22;1788;49.400;11.092;2023-09-19T16:53:13;22.40;45.60
3548;DHT22;1788;49.400;11.092;2023-09-19T16:55:40;22.40;45.60
3548;DHT22;1788;49.400;11.092;2023-09-19T16:58:07;22.40;45.90
3548;DHT22;1788;49.400;11.092;2023-09-19T17:00:35;22.40;45.90
3548;DHT22;1788;49.400;11.092;2023-09-19T17:03:01;22.40;46.10
3548;DHT22;1788;49.400;11.092;2023-09-19T17:05:28;22.40;46.30
3548;DHT22;1788;49.400;11.092;2023-09-19T17:07:54;22.40;46.50
3548;DHT22;1788;49.400;11.092;2023-09-19T17:10:21;22.30;46.60
3548;DHT22;1788;49.400;11.092;2023-09-19T17:12:48;22.30;46.60
3548;DHT22;1788;49.400;11.092;2023-09-19T17:15:16;22.30;46.70
3548;DHT22;1788;49.400;11.092;2023-09-19T17:17:42;22.30;46.80
3548;DHT22;1788;49.400;11.092;2023-09-19T17:20:10;22.20;47.10
3548;DHT22;1788;49.400;11.092;2023-09-19T17:22:36;22.20;47.10
3548;DHT22;1788;49.400;11.092;2023-09-19T17:25:03;22.20;47.30
3548;DHT22;1788;49.400;11.092;2023-09-19T17:27:29;22.10;47.60
3548;DHT22;1788;49.400;11.092;2023-09-19T17:29:56;22.10;48.00
3548;DHT22;1788;49.400;11.092;2023-09-19T17:32:23;22.10;48.40
3548;DHT22;1788;49.400;11.092;2023-09-19T17:34:49;22.00;48.60
3548;DHT22;1788;49.400;11.092;2023-09-19T17:37:16;22.00;48.80
3548;DHT22;1788;49.400;11.092;2023-09-19T17:39:43;21.90;49.00
3548;DHT22;1788;49.400;11.092;2023-09-19T17:42:10;21.70;49.40
3548;DHT22;1788;49.400;11.092;2023-09-19T17:44:36;21.70;49.40